Time;durP1;ratioP1;P1;durP2;ratioP2;P2;SDS_P1;SDS_P2;PMS_P1;PMS_P2;Temp;Humidity;BMP_temperature;BMP_pressure;BME280_temperature;BME280_humidity;BME280_pressure;Samples;Min_cycle;Max_cycle;Signal;HPM_P1;HPM_P2
2021/01/25 00:01:04;;;;;;;10.75;6.07;;;;;;;0.54;95.47;99971.84;4940881;29;20059;-78
2021/01/25 00:03:31;;;;;;;9.48;5.78;;;;;;;0.66;95.01;99977.94;4953060;28;20023;-78
2021/01/25 00:05:56;;;;;;;7.55;5.47;;;;;;;0.64;94.84;99977.22;4954013;28;20044;-79
2021/01/25 00:08:22;;;;;;;7.30;5.22;;;;;;;0.59;95.29;99985.28;4949152;28;20066;-79
2021/01/25 00:10:48;;;;;;;8.30;4.82;;;;;;;0.61;95.05;99983.41;4953927;28;20024;-79
2021/01/25 00:13:13;;;;;;;11.00;5.40;;;;;;;0.57;95.18;99981.97;4949622;28;20032;-80
2021/01/25 00:15:39;;;;;;;10.05;4.85;;;;;;;0.66;94.78;99977.94;4950700;28;20050;-79
2021/01/25 00:18:04;;;;;;;8.32;4.97;;;;;;;0.66;94.05;99983.94;4936274;29;20042;-80
2021/01/25 00:20:30;;;;;;;6.90;4.53;;;;;;;0.66;94.54;99983.09;4935092;29;20042;-80
2021/01/25 00:22:55;;;;;;;7.32;4.68;;;;;;;0.59;94.89;99974.94;4947771;29;20050;-80
2021/01/25 00:25:21;;;;;;;10.32;4.75;;;;;;;0.58;94.78;99983.59;4953045;28;20122;-78
2021/01/25 00:27:47;;;;;;;8.85;4.80;;;;;;;0.60;94.65;99996.41;4949786;29;20035;-79
2021/01/25 00:30:17;;;;;;;7.05;4.55;;;;;;;0.55;95.13;99996.72;4932430;29;20039;-76
2021/01/25 00:32:44;;;;;;;7.40;4.93;;;;;;;0.58;94.75;99996.50;4932144;29;20477;-78
2021/01/25 00:35:10;;;;;;;7.90;3.80;;;;;;;0.58;94.85;99999.94;4949160;29;20526;-78
2021/01/25 00:37:36;;;;;;;5.13;3.95;;;;;;;0.49;95.13;99986.78;4949527;28;20793;-78
2021/01/25 00:40:03;;;;;;;7.32;3.90;;;;;;;0.46;95.24;99994.75;4940833;29;20045;-78
2021/01/25 00:42:29;;;;;;;5.55;3.72;;;;;;;0.48;95.67;99998.06;4951493;29;20039;-79
2021/01/25 00:44:54;;;;;;;6.53;4.22;;;;;;;0.43;96.00;99997.50;4947305;28;20042;-78
2021/01/25 00:47:20;;;;;;;6.78;4.53;;;;;;;0.37;96.08;99999.56;4953016;28;20510;-76
2021/01/25 00:49:45;;;;;;;7.35;4.68;;;;;;;0.41;96.39;99996.78;4938696;29;20042;-78
2021/01/25 00:52:11;;;;;;;7.68;3.97;;;;;;;0.45;96.37;99998.25;4957415;28;20094;-76
2021/01/25 00:54:36;;;;;;;8.35;4.18;;;;;;;0.57;95.76;100002.63;4931577;29;20114;-78
2021/01/25 00:57:02;;;;;;;5.75;3.95;;;;;;;0.57;95.15;99998.28;4948325;29;20036;-77
2021/01/25 00:59:28;;;;;;;8.45;4.63;;;;;;;0.46;95.87;99999.91;4954316;29;20035;-78
2021/01/25 01:01:55;;;;;;;5.47;4.45;;;;;;;0.43;96.43;100008.66;4960534;28;20043;-77
2021/01/25 01:04:20;;;;;;;8.43;4.72;;;;;;;0.52;95.40;99997.72;4951734;29;20124;-78
2021/01/25 01:06:46;;;;;;;9.98;4.22;;;;;;;0.54;95.38;100007.97;4953744;29;20046;-77
2021/01/25 01:09:11;;;;;;;7.22;4.72;;;;;;;0.52;95.94;100002.06;4955440;28;20040;-78
2021/01/25 01:11:37;;;;;;;11.90;5.50;;;;;;;0.52;95.75;100007.25;4926116;29;20043;-80
2021/01/25 01:14:03;;;;;;;9.57;5.50;;;;;;;0.45;95.32;99988.72;4954562;28;20156;-80
2021/01/25 01:16:28;;;;;;;8.13;4.97;;;;;;;0.53;95.35;100008.91;4937318;29;20047;-80
2021/01/25 01:18:54;;;;;;;12.98;5.22;;;;;;;0.53;95.27;100003.75;4955793;28;20465;-77
2021/01/25 01:21:19;;;;;;;9.50;5.15;;;;;;;0.41;95.79;100001.94;4953521;29;20592;-77
2021/01/25 01:23:45;;;;;;;9.70;5.07;;;;;;;0.29;95.98;99999.25;4949798;28;20038;-79
2021/01/25 01:26:10;;;;;;;6.78;4.90;;;;;;;0.37;95.61;99996.97;4940155;29;20056;-78
2021/01/25 01:28:36;;;;;;;8.95;5.15;;;;;;;0.27;95.64;100008.81;4937523;29;20031;-78
2021/01/25 01:31:02;;;;;;;8.93;5.30;;;;;;;0.13;96.68;100014.88;4951965;29;20032;-79
2021/01/25 01:33:27;;;;;;;10.10;5.60;;;;;;;0.19;96.74;100017.06;4951114;28;20027;-77
2021/01/25 01:35:53;;;;;;;8.38;5.03;;;;;;;0.30;95.46;100012.94;4935471;29;20094;-78
2021/01/25 01:38:18;;;;;;;9.38;5.25;;;;;;;0.38;95.42;100008.97;4951575;29;20490;-78
2021/01/25 01:40:44;;;;;;;7.10;4.78;;;;;;;0.39;94.50;100008.03;4939379;29;20039;-79
2021/01/25 01:43:10;;;;;;;7.78;5.03;;;;;;;0.27;95.24;100014.00;4935527;29;20044;-78
2021/01/25 01:45:35;;;;;;;9.75;5.38;;;;;;;0.14;96.19;100013.94;4952560;29;20039;-78
2021/01/25 01:48:01;;;;;;;8.55;5.30;;;;;;;0.29;95.44;100009.56;4934157;29;20573;-79
2021/01/25 01:50:28;;;;;;;9.40;5.60;;;;;;;0.33;95.26;100018.75;4949221;29;20038;-81
2021/01/25 01:52:54;;;;;;;12.77;5.85;;;;;;;0.33;95.22;100023.09;4948351;28;20039;-80
2021/01/25 01:55:21;;;;;;;11.07;6.03;;;;;;;0.23;95.33;100015.13;4947081;29;20054;-77
2021/01/25 01:57:50;;;;;;;10.00;6.22;;;;;;;0.30;94.51;100010.38;4945346;29;20035;-78
2021/01/25 02:00:16;;;;;;;14.35;6.10;;;;;;;0.21;94.51;100006.66;4954993;28;20042;-78
2021/01/25 02:02:42;;;;;;;12.43;6.18;;;;;;;0.11;94.83;100010.72;4923340;29;20568;-78
2021/01/25 02:05:10;;;;;;;8.32;6.07;;;;;;;-0.07;96.20;100016.13;4954079;29;20054;-75
2021/01/25 02:07:37;;;;;;;15.40;6.80;;;;;;;-0.25;96.60;100017.25;4954382;29;20059;-79
2021/01/25 02:10:04;;;;;;;13.10;6.97;;;;;;;-0.29;97.01;100019.19;4951699;28;20074;-79
2021/01/25 02:12:30;;;;;;;12.55;6.20;;;;;;;-0.37;97.14;100025.78;4949634;28;20027;-78
2021/01/25 02:14:59;;;;;;;18.67;7.13;;;;;;;-0.47;97.41;100021.16;4962717;28;20682;-79
2021/01/25 02:17:25;;;;;;;9.88;5.75;;;;;;;-0.41;97.95;100019.97;4949672;28;20035;-78
2021/01/25 02:20:07;;;;;;;13.52;7.20;;;;;;;-0.38;98.24;100026.69;4940718;29;20083;-79
2021/01/25 02:22:35;;;;;;;14.13;6.75;;;;;;;-0.36;98.22;100014.53;4937692;29;20067;-79
2021/01/25 02:25:33;;;;;;;16.92;8.35;;;;;;;-0.36;97.93;100024.81;4952720;28;20104;-78
2021/01/25 02:28:00;;;;;;;13.05;7.25;;;;;;;-0.36;97.99;100024.81;4956032;28;20035;-78
2021/01/25 02:30:25;;;;;;;14.35;8.13;;;;;;;-0.20;97.30;100021.22;4955489;28;20031;-79
2021/01/25 02:32:52;;;;;;;11.13;7.25;;;;;;;-0.29;97.42;100021.78;4953728;29;20035;-79
2021/01/25 02:35:18;;;;;;;15.77;7.70;;;;;;;-0.36;97.61;100024.81;4939268;29;20102;-77
2021/01/25 02:37:46;;;;;;;19.23;8.63;;;;;;;-0.41;98.02;100025.13;4954495;29;20083;-75
2021/01/25 02:40:14;;;;;;;17.38;8.90;;;;;;;-0.43;98.37;100026.97;4940465;29;20036;-77
2021/01/25 02:42:42;;;;;;;17.92;9.55;;;;;;;-0.44;97.99;100025.31;4952922;29;20035;-80
2021/01/25 02:45:09;;;;;;;17.65;9.32;;;;;;;-0.54;98.36;100021.63;4958194;29;20054;-74
2021/01/25 02:47:36;;;;;;;15.43;9.02;;;;;;;-0.54;98.49;100027.63;4943169;29;20083;-77
2021/01/25 02:50:05;;;;;;;16.15;9.00;;;;;;;-0.55;98.38;100023.38;4949225;29;20504;-78
2021/01/25 02:52:31;;;;;;;16.67;9.85;;;;;;;-0.49;98.45;100030.75;4939404;29;20039;-77
2021/01/25 02:54:56;;;;;;;19.48;8.70;;;;;;;-0.44;98.37;100033.84;4934623;29;20114;-78
2021/01/25 02:57:23;;;;;;;16.52;9.25;;;;;;;-0.36;97.92;100035.97;4939084;29;20457;-78
2021/01/25 02:59:49;;;;;;;17.02;9.55;;;;;;;-0.31;97.99;100039.09;4939011;29;20031;-78
2021/01/25 03:02:16;;;;;;;18.13;9.88;;;;;;;-0.06;96.73;100033.25;4950808;29;20034;-78
2021/01/25 03:04:42;;;;;;;18.58;9.65;;;;;;;-0.05;96.81;100037.47;4948903;29;20035;-79
2021/01/25 03:07:07;;;;;;;18.63;9.50;;;;;;;-0.03;96.37;100043.38;4953921;28;20815;-78
2021/01/25 03:09:34;;;;;;;19.33;10.45;;;;;;;0.13;95.45;100043.25;4923910;28;20067;-78
2021/01/25 03:12:04;;;;;;;16.65;11.05;;;;;;;-0.03;96.43;100040.78;4950365;28;20110;-77
2021/01/25 03:14:30;;;;;;;19.13;11.27;;;;;;;-0.05;96.22;100034.09;4946673;29;20039;-78
2021/01/25 03:16:56;;;;;;;21.98;11.55;;;;;;;0.03;95.65;100039.56;4941431;29;20039;-75
2021/01/25 03:19:22;;;;;;;17.58;12.00;;;;;;;0.10;94.98;100027.13;4942277;29;20539;-76
2021/01/25 03:21:49;;;;;;;32.20;13.57;;;;;;;0.13;94.81;100035.50;4938777;29;20043;-77
2021/01/25 03:24:16;;;;;;;18.92;13.10;;;;;;;0.10;94.93;100037.44;4968374;28;20041;-77
2021/01/25 03:26:42;;;;;;;18.38;12.60;;;;;;;0.02;95.65;100040.50;4938390;29;20039;-75
2021/01/25 03:29:08;;;;;;;24.58;14.68;;;;;;;0.02;95.38;100037.94;4941687;29;20046;-77
2021/01/25 03:31:34;;;;;;;21.83;14.48;;;;;;;-0.11;96.36;100044.78;4958256;29;20074;-77
2021/01/25 03:33:59;;;;;;;23.33;15.45;;;;;;;0.12;95.29;100046.75;4957378;29;20039;-77
2021/01/25 03:36:25;;;;;;;26.83;16.27;;;;;;;0.16;94.09;100055.94;4940417;29;20035;-76
2021/01/25 03:38:51;;;;;;;23.55;15.93;;;;;;;0.14;94.44;100056.97;4956061;29;20039;-77
2021/01/25 03:41:16;;;;;;;27.58;15.55;;;;;;;0.12;94.35;100059.63;4941256;29;20054;-79
2021/01/25 03:43:42;;;;;;;27.50;17.13;;;;;;;-0.05;94.92;100060.69;4941588;29;20039;-78
2021/01/25 03:46:07;;;;;;;30.77;17.45;;;;;;;-0.08;95.49;100063.44;4956353;29;20035;-75
2021/01/25 03:48:33;;;;;;;28.25;18.10;;;;;;;-0.07;95.33;100061.72;4941007;28;20051;-77
2021/01/25 03:50:58;;;;;;;29.17;17.42;;;;;;;-0.03;95.22;100064.00;4940600;29;20039;-78
2021/01/25 03:53:24;;;;;;;30.25;17.52;;;;;;;-0.07;95.26;100074.59;4957242;29;20047;-75
2021/01/25 03:55:49;;;;;;;31.40;18.23;;;;;;;-0.17;95.86;100070.91;4939904;29;20090;-77
2021/01/25 03:58:15;;;;;;;32.83;17.48;;;;;;;-0.15;95.93;100081.97;4935882;29;20109;-78
2021/01/25 04:00:40;;;;;;;32.03;18.75;;;;;;;-0.27;96.33;100075.81;4956495;29;20074;-74
2021/01/25 04:03:06;;;;;;;37.55;19.95;;;;;;;-0.15;96.00;100080.22;4955759;29;20049;-77
2021/01/25 04:05:31;;;;;;;35.65;18.77;;;;;;;-0.11;95.85;100076.53;4957641;29;20078;-78
2021/01/25 04:07:57;;;;;;;38.08;20.90;;;;;;;-0.11;95.77;100081.69;4941834;29;20050;-79
2021/01/25 04:10:22;;;;;;;34.55;20.08;;;;;;;-0.14;96.06;100076.72;4957075;29;20047;-77
2021/01/25 04:12:48;;;;;;;34.60;19.83;;;;;;;-0.07;95.71;100075.41;4966705;28;20054;-77
2021/01/25 04:15:14;;;;;;;29.65;18.33;;;;;;;-0.06;95.42;100086.56;4955495;28;20106;-79
2021/01/25 04:17:39;;;;;;;34.35;19.33;;;;;;;-0.22;96.07;100082.34;4976395;28;20094;-78
2021/01/25 04:20:05;;;;;;;36.10;20.65;;;;;;;-0.29;96.99;100086.22;4958149;28;20069;-77
2021/01/25 04:22:31;;;;;;;37.78;21.00;;;;;;;-0.21;96.31;100081.44;4925948;29;20081;-79
2021/01/25 04:24:57;;;;;;;37.78;20.98;;;;;;;-0.25;96.34;100092.00;4956967;29;20116;-79
2021/01/25 04:27:22;;;;;;;38.08;20.92;;;;;;;-0.17;96.29;100087.22;4940403;29;20051;-76
2021/01/25 04:29:48;;;;;;;36.03;20.50;;;;;;;-0.31;96.32;100090.63;4949722;28;20038;-80
2021/01/25 04:32:13;;;;;;;41.53;22.77;;;;;;;-0.37;97.05;100095.34;4975997;28;20039;-78
2021/01/25 04:34:39;;;;;;;42.08;22.02;;;;;;;-0.17;95.77;100094.97;4976528;28;20094;-79
2021/01/25 04:37:04;;;;;;;38.10;22.13;;;;;;;-0.25;96.19;100089.44;4955898;28;20039;-77
2021/01/25 04:39:30;;;;;;;39.35;20.63;;;;;;;-0.26;96.79;100092.94;4975804;28;20041;-75
2021/01/25 04:41:56;;;;;;;40.72;21.52;;;;;;;-0.29;96.60;100103.44;4976480;28;20086;-79
2021/01/25 04:44:26;;;;;;;46.65;22.65;;;;;;;-0.41;97.13;100097.28;4958845;28;20046;-75
2021/01/25 04:46:54;;;;;;;41.08;21.88;;;;;;;-0.34;97.37;100103.72;4975073;28;20046;-77
2021/01/25 04:49:20;;;;;;;39.60;21.15;;;;;;;-0.35;97.49;100102.06;4969855;28;20046;-78
2021/01/25 04:51:46;;;;;;;42.17;20.63;;;;;;;-0.23;96.59;100108.22;4941011;29;20086;-77
2021/01/25 04:54:13;;;;;;;37.20;21.58;;;;;;;-0.15;96.38;100098.28;4940059;29;20517;-75
2021/01/25 04:56:40;;;;;;;33.65;20.85;;;;;;;-0.15;96.00;100105.16;4939423;29;20035;-76
2021/01/25 04:59:06;;;;;;;32.85;20.67;;;;;;;-0.15;96.03;100103.44;4940158;29;20046;-75
2021/01/25 05:01:31;;;;;;;32.17;20.10;;;;;;;-0.05;95.70;100103.69;4956405;29;20129;-75
2021/01/25 05:03:57;;;;;;;37.00;20.20;;;;;;;-0.17;95.73;100089.81;4957353;28;20082;-75
2021/01/25 05:06:22;;;;;;;38.70;22.60;;;;;;;-0.27;96.44;100106.75;4956802;29;20413;-78
2021/01/25 05:08:48;;;;;;;34.63;20.98;;;;;;;-0.30;96.81;100112.91;4956943;28;20031;-74
2021/01/25 05:11:15;;;;;;;35.40;20.73;;;;;;;-0.21;96.53;100112.38;4956733;28;20038;-75
2021/01/25 05:13:41;;;;;;;40.47;22.23;;;;;;;-0.05;96.19;100099.34;4956724;28;20112;-76
2021/01/25 05:16:20;;;;;;;35.40;20.20;;;;;;;-0.07;95.75;100105.53;4958445;28;20493;-78
2021/01/25 05:18:53;;;;;;;32.83;18.95;;;;;;;-0.10;96.21;100118.59;4975926;28;20039;-77
2021/01/25 05:21:29;;;;;;;38.55;20.17;;;;;;;-0.10;96.03;100105.72;4956536;28;20106;-76
2021/01/25 05:24:02;;;;;;;37.05;19.17;;;;;;;0.01;95.63;100111.03;4965628;28;20121;-75
2021/01/25 05:26:28;;;;;;;37.15;20.00;;;;;;;-0.06;95.88;100102.03;4941083;29;20053;-76
2021/01/25 05:28:53;;;;;;;33.65;20.10;;;;;;;-0.03;95.25;100114.75;4956257;29;20126;-78
2021/01/25 05:31:24;;;;;;;37.22;20.63;;;;;;;-0.04;95.41;100110.50;4957278;29;20126;-76
2021/01/25 05:33:50;;;;;;;36.50;20.35;;;;;;;-0.13;96.05;100118.78;4957163;28;20039;-77
2021/01/25 05:36:21;;;;;;;35.70;19.58;;;;;;;-0.07;95.92;100118.44;4941020;29;20039;-77
2021/01/25 05:38:48;;;;;;;35.42;18.73;;;;;;;-0.09;96.34;100118.53;4943401;29;20101;-79
2021/01/25 05:41:15;;;;;;;36.13;19.05;;;;;;;-0.13;96.03;100113.63;4959439;29;20749;-77
2021/01/25 05:43:42;;;;;;;36.80;19.88;;;;;;;-0.23;96.21;100101.31;4959438;29;20047;-76
2021/01/25 05:46:15;;;;;;;43.20;22.00;;;;;;;-0.12;96.04;100116.13;4959763;29;20047;-76
2021/01/25 05:48:42;;;;;;;36.28;21.73;;;;;;;-0.14;95.73;100115.38;4959573;29;20039;-78
2021/01/25 05:51:31;;;;;;;36.45;20.35;;;;;;;-0.14;96.10;100119.72;4977254;28;20061;-77
2021/01/25 05:54:01;;;;;;;35.58;19.10;;;;;;;-0.20;95.77;100118.34;4978264;28;20070;-78
2021/01/25 05:56:27;;;;;;;34.10;20.65;;;;;;;-0.25;96.19;100116.03;4974545;28;20515;-75
2021/01/25 05:58:52;;;;;;;39.22;21.60;;;;;;;-0.35;96.42;100114.13;4958919;29;20039;-77
2021/01/25 06:01:21;;;;;;;39.53;21.33;;;;;;;-0.29;96.67;100124.06;4959348;29;20039;-78
2021/01/25 06:03:47;;;;;;;38.05;21.25;;;;;;;-0.31;96.35;100118.97;4943615;29;20171;-76
2021/01/25 06:06:27;;;;;;;35.72;20.23;;;;;;;-0.26;96.23;100127.28;4958212;28;20506;-78
2021/01/25 06:09:17;;;;;;;42.42;21.02;;;;;;;-0.38;97.03;100132.31;4943020;29;20053;-75
2021/01/25 06:11:46;;;;;;;37.08;21.00;;;;;;;-0.34;96.43;100120.91;4963959;28;20059;-77
2021/01/25 06:14:24;;;;;;;40.63;21.75;;;;;;;-0.35;96.36;100134.72;4979009;28;20045;-77
2021/01/25 06:16:51;;;;;;;36.13;20.63;;;;;;;-0.31;96.59;100133.63;4977156;28;20073;-76
2021/01/25 06:19:25;;;;;;;43.58;21.85;;;;;;;-0.37;96.69;100144.31;4970596;28;20042;-78
2021/01/25 06:21:50;;;;;;;42.47;22.40;;;;;;;-0.47;97.12;100146.56;4955029;29;20113;-79
2021/01/25 06:24:19;;;;;;;42.35;20.77;;;;;;;-0.48;97.29;100147.50;4928459;29;20043;-75
2021/01/25 06:26:49;;;;;;;48.60;22.63;;;;;;;-0.42;97.29;100157.44;4940092;29;20042;-75
2021/01/25 06:29:20;;;;;;;44.28;22.30;;;;;;;-0.44;97.00;100152.38;4924136;29;20478;-75
2021/01/25 06:31:53;;;;;;;46.10;22.65;;;;;;;-0.40;96.79;100156.47;4924864;29;20055;-76
2021/01/25 06:34:18;;;;;;;47.10;22.58;;;;;;;-0.37;96.64;100155.44;4924063;29;20035;-77
2021/01/25 06:36:44;;;;;;;44.00;23.65;;;;;;;-0.32;96.09;100161.16;4940013;29;20055;-77
2021/01/25 06:39:11;;;;;;;48.15;24.58;;;;;;;-0.37;96.74;100173.47;4928983;28;20534;-76
2021/01/25 06:41:41;;;;;;;46.45;23.85;;;;;;;-0.37;96.85;100170.06;4963520;28;20041;-77
2021/01/25 06:44:08;;;;;;;47.58;24.55;;;;;;;-0.47;96.86;100177.50;4978331;28;20042;-75
2021/01/25 06:46:36;;;;;;;47.60;23.90;;;;;;;-0.43;97.12;100177.25;4976580;28;20050;-75
2021/01/25 06:49:08;;;;;;;52.65;26.38;;;;;;;-0.55;97.14;100174.53;4975271;28;20050;-76
2021/01/25 06:51:40;;;;;;;47.72;23.08;;;;;;;-0.54;97.50;100178.78;4977569;28;20045;-78
2021/01/25 06:54:06;;;;;;;49.65;23.20;;;;;;;-0.61;97.78;100184.28;4975992;28;20085;-77
2021/01/25 06:56:51;;;;;;;46.92;24.05;;;;;;;-0.52;97.48;100187.25;4959534;29;20043;-75
2021/01/25 06:59:20;;;;;;;47.65;23.20;;;;;;;-0.50;97.39;100193.16;4955498;29;20035;-78
2021/01/25 07:01:48;;;;;;;51.47;25.02;;;;;;;-0.58;97.51;100193.59;4937677;29;20035;-75
2021/01/25 07:04:14;;;;;;;51.95;26.02;;;;;;;-0.66;97.83;100191.47;4958819;29;20069;-77
2021/01/25 07:06:44;;;;;;;56.22;25.83;;;;;;;-0.64;98.36;100199.94;4957963;29;20494;-78
2021/01/25 07:09:10;;;;;;;51.03;24.45;;;;;;;-0.60;98.29;100203.16;4950218;28;20050;-74
2021/01/25 07:11:36;;;;;;;76.90;30.02;;;;;;;-0.71;98.37;100201.19;4975923;28;20039;-78
2021/01/25 07:14:02;;;;;;;58.88;26.50;;;;;;;-0.64;98.54;100204.22;4978446;28;20047;-74
2021/01/25 07:16:28;;;;;;;48.40;23.15;;;;;;;-0.63;98.61;100214.44;4977691;28;20097;-75
2021/01/25 07:18:54;;;;;;;53.58;25.60;;;;;;;-0.53;98.04;100217.31;4978042;28;20046;-76
2021/01/25 07:21:21;;;;;;;51.10;26.08;;;;;;;-0.46;97.88;100215.22;4975747;28;20031;-76
2021/01/25 07:23:49;;;;;;;53.58;26.25;;;;;;;-0.35;97.31;100223.19;4925492;29;20406;-77
2021/01/25 07:26:15;;;;;;;46.10;23.33;;;;;;;-0.41;97.41;100228.69;4939821;29;20036;-77
2021/01/25 07:28:42;;;;;;;50.42;25.08;;;;;;;-0.36;97.54;100223.25;4970625;28;20047;-80
2021/01/25 07:31:10;;;;;;;49.05;24.67;;;;;;;-0.32;96.62;100225.59;4942746;29;20042;-79
2021/01/25 07:33:36;;;;;;;50.70;25.83;;;;;;;-0.31;96.41;100234.97;4942956;29;20030;-79
2021/01/25 07:36:03;;;;;;;47.63;25.27;;;;;;;-0.33;96.67;100238.56;4961307;28;20085;-79
2021/01/25 07:38:28;;;;;;;46.75;25.02;;;;;;;-0.33;96.37;100246.28;4944454;29;20118;-77
2021/01/25 07:40:58;;;;;;;49.50;26.00;;;;;;;-0.40;96.24;100240.66;4955567;29;20101;-79
2021/01/25 07:43:26;;;;;;;56.78;25.27;;;;;;;-0.39;96.58;100242.31;4958117;29;20039;-79
2021/01/25 07:45:54;;;;;;;56.55;26.45;;;;;;;-0.44;96.55;100252.03;4957630;29;20043;-79
2021/01/25 07:48:20;;;;;;;57.97;26.40;;;;;;;-0.44;96.79;100250.28;4944977;29;20061;-80
2021/01/25 07:50:57;;;;;;;54.08;25.38;;;;;;;-0.44;96.71;100250.28;4947517;28;20489;-76
2021/01/25 07:53:23;;;;;;;52.28;25.02;;;;;;;-0.51;96.67;100251.59;4921868;29;20090;-78
2021/01/25 07:55:49;;;;;;;57.88;26.10;;;;;;;-0.49;96.15;100256.63;4951476;28;20110;-76
2021/01/25 07:58:14;;;;;;;60.15;26.75;;;;;;;-0.46;96.21;100265.00;4956855;29;20118;-76
2021/01/25 08:00:41;;;;;;;55.88;24.67;;;;;;;-0.45;95.91;100268.44;4956682;29;20031;-80
2021/01/25 08:03:12;;;;;;;52.13;24.67;;;;;;;-0.55;95.79;100265.53;4941170;29;20058;-77
2021/01/25 08:05:39;;;;;;;50.95;23.80;;;;;;;-0.60;96.51;100268.38;4955416;29;20039;-78
2021/01/25 08:08:09;;;;;;;53.78;24.40;;;;;;;-0.61;95.76;100258.97;4956107;29;20118;-79
2021/01/25 08:10:35;;;;;;;54.13;23.98;;;;;;;-0.57;95.99;100269.13;4924941;29;20121;-75
2021/01/25 08:13:13;;;;;;;43.88;21.08;;;;;;;-0.55;96.16;100272.44;4973344;28;20066;-75
2021/01/25 08:15:39;;;;;;;46.53;21.60;;;;;;;-0.69;96.35;100273.22;4966977;28;20058;-78
2021/01/25 08:18:07;;;;;;;48.75;22.25;;;;;;;-0.63;96.32;100286.56;4938291;29;20039;-77
2021/01/25 08:20:36;;;;;;;46.13;20.88;;;;;;;-0.63;96.53;100285.75;4906419;29;20075;-75
2021/01/25 08:23:21;;;;;;;41.00;19.75;;;;;;;-0.59;96.63;100285.47;4950811;28;20040;-75
2021/01/25 08:25:58;;;;;;;38.97;19.45;;;;;;;-0.49;96.18;100287.53;4931583;29;20119;-75
2021/01/25 08:28:29;;;;;;;36.53;19.23;;;;;;;-0.47;95.50;100294.28;4950827;29;20046;-77
2021/01/25 08:31:07;;;;;;;42.70;20.20;;;;;;;-0.48;95.30;100294.38;4956270;29;20070;-76
2021/01/25 08:33:35;;;;;;;38.67;19.52;;;;;;;-0.56;96.29;100287.06;4940451;29;20035;-76
2021/01/25 08:36:02;;;;;;;40.17;19.90;;;;;;;-0.63;96.59;100289.16;4939365;29;20055;-76
2021/01/25 08:38:31;;;;;;;40.17;20.17;;;;;;;-0.63;96.79;100299.47;4959122;28;20405;-77
2021/01/25 08:41:01;;;;;;;43.63;20.35;;;;;;;-0.63;96.85;100299.47;4954857;29;20027;-75
2021/01/25 08:43:33;;;;;;;34.97;16.10;;;;;;;-0.60;96.11;100304.44;4964487;28;20034;-77
2021/01/25 08:46:13;;;;;;;34.90;17.85;;;;;;;-0.62;96.67;100313.19;4976355;28;20673;-77
2021/01/25 08:48:40;;;;;;;37.70;17.60;;;;;;;-0.62;96.24;100308.03;4966701;28;20104;-76
2021/01/25 08:51:25;;;;;;;37.42;18.70;;;;;;;-0.59;96.73;100318.16;4976753;28;20042;-77
2021/01/25 08:54:00;;;;;;;38.28;18.98;;;;;;;-0.63;96.26;100325.22;4960443;28;20027;-77
2021/01/25 08:56:34;;;;;;;43.50;21.58;;;;;;;-0.65;96.69;100326.22;4958010;28;20429;-75
2021/01/25 08:59:12;;;;;;;44.67;22.48;;;;;;;-0.68;96.89;100323.81;4950695;29;20042;-78
2021/01/25 09:01:40;;;;;;;45.85;22.60;;;;;;;-0.66;96.67;100329.72;4942822;29;20047;-77
2021/01/25 09:04:06;;;;;;;46.60;22.30;;;;;;;-0.62;96.36;100326.91;4952803;29;20043;-81
2021/01/25 09:06:33;;;;;;;48.72;22.17;;;;;;;-0.56;96.64;100330.88;4919880;29;20403;-76
2021/01/25 09:09:01;;;;;;;47.85;24.00;;;;;;;-0.59;96.46;100337.00;4925599;29;20048;-75
2021/01/25 09:11:27;;;;;;;45.35;22.67;;;;;;;-0.60;96.69;100337.94;4938782;28;20050;-77
2021/01/25 09:13:53;;;;;;;54.20;23.25;;;;;;;-0.59;96.22;100342.16;4983258;28;20531;-81
2021/01/25 09:16:18;;;;;;;46.53;23.75;;;;;;;-0.50;96.65;100350.31;4982200;28;20102;-78
2021/01/25 09:18:44;;;;;;;47.75;23.02;;;;;;;-0.62;96.53;100337.19;4971271;28;20043;-77
2021/01/25 09:21:09;;;;;;;51.50;24.48;;;;;;;-0.61;96.64;100338.03;4962342;28;20045;-76
2021/01/25 09:23:35;;;;;;;55.90;24.45;;;;;;;-0.63;96.77;100343.25;4963683;28;20047;-77
2021/01/25 09:26:00;;;;;;;53.72;23.17;;;;;;;-0.67;96.85;100340.94;4958846;28;20051;-75
2021/01/25 09:28:26;;;;;;;55.35;24.15;;;;;;;-0.62;96.57;100346.69;4946635;29;20408;-76
2021/01/25 09:30:51;;;;;;;50.40;24.48;;;;;;;-0.66;96.52;100342.59;4946693;29;20041;-76
2021/01/25 09:33:17;;;;;;;54.42;25.40;;;;;;;-0.68;96.71;100347.00;4963989;28;20036;-76
2021/01/25 09:35:42;;;;;;;53.40;23.73;;;;;;;-0.59;96.81;100349.06;4946402;29;20491;-79
2021/01/25 09:38:08;;;;;;;53.33;25.35;;;;;;;-0.43;96.63;100349.88;4947177;29;20054;-76
2021/01/25 09:40:34;;;;;;;53.28;22.73;;;;;;;-0.42;96.54;100353.28;4964489;29;20493;-77
2021/01/25 09:43:01;;;;;;;56.47;25.08;;;;;;;-0.35;96.25;100362.34;4946177;29;20103;-75
2021/01/25 09:45:26;;;;;;;51.17;24.95;;;;;;;-0.35;96.00;100367.50;4931517;29;20153;-76
2021/01/25 09:47:52;;;;;;;60.78;27.75;;;;;;;-0.35;95.78;100354.59;4962459;29;20489;-75
2021/01/25 09:50:18;;;;;;;54.10;24.73;;;;;;;-0.34;96.06;100365.75;4944444;28;20400;-76
2021/01/25 09:52:45;;;;;;;52.65;24.27;;;;;;;-0.29;96.30;100367.16;4960304;28;20035;-76
2021/01/25 09:55:13;;;;;;;55.63;25.38;;;;;;;-0.26;96.37;100366.97;4950035;29;20039;-77
2021/01/25 09:57:39;;;;;;;48.50;23.40;;;;;;;-0.22;96.04;100380.53;4968943;28;20135;-75
2021/01/25 10:00:07;;;;;;;55.78;24.10;;;;;;;-0.07;95.69;100376.25;4948035;28;20047;-75
2021/01/25 10:02:33;;;;;;;47.28;21.80;;;;;;;-0.14;95.46;100385.25;4949663;28;20027;-76
2021/01/25 10:04:58;;;;;;;48.90;21.45;;;;;;;-0.17;94.94;100382.84;4959088;28;20031;-77
2021/01/25 10:07:23;;;;;;;47.28;22.30;;;;;;;-0.29;95.45;100381.78;4926607;29;20070;-75
2021/01/25 10:09:54;;;;;;;44.72;20.90;;;;;;;-0.21;95.75;100388.19;4955449;28;20059;-77
2021/01/25 10:12:23;;;;;;;42.35;21.45;;;;;;;-0.23;95.72;100390.03;4951678;29;20027;-77
2021/01/25 10:14:49;;;;;;;48.92;22.17;;;;;;;-0.25;96.28;100398.72;4960536;28;20414;-76
2021/01/25 10:17:15;;;;;;;43.20;20.73;;;;;;;-0.19;96.05;100403.53;4945895;29;20039;-75
2021/01/25 10:19:40;;;;;;;37.55;18.35;;;;;;;-0.17;95.98;100401.72;4939038;29;20035;-77
2021/01/25 10:22:07;;;;;;;44.80;21.45;;;;;;;-0.10;94.49;100403.03;4934967;29;20155;-75
2021/01/25 10:24:33;;;;;;;39.72;20.63;;;;;;;-0.09;94.76;100406.47;4957050;29;20027;-76
2021/01/25 10:26:59;;;;;;;46.05;21.00;;;;;;;-0.14;94.90;100408.47;4943007;29;20630;-77
2021/01/25 10:29:24;;;;;;;49.97;22.42;;;;;;;-0.18;95.03;100407.78;4943047;29;20039;-77
2021/01/25 10:31:50;;;;;;;45.30;23.00;;;;;;;-0.13;94.92;100413.53;4933921;29;20027;-76
2021/01/25 10:34:15;;;;;;;53.78;25.17;;;;;;;-0.15;95.26;100423.09;4954405;29;20564;-77
2021/01/25 10:36:40;;;;;;;48.58;24.17;;;;;;;-0.10;95.08;100412.53;4953040;29;20032;-76
2021/01/25 10:39:06;;;;;;;43.22;22.73;;;;;;;-0.10;95.29;100422.84;4940568;28;20548;-77
2021/01/25 10:41:31;;;;;;;47.92;22.55;;;;;;;-0.01;95.98;100425.72;4969150;28;20117;-77
2021/01/25 10:43:57;;;;;;;41.70;23.15;;;;;;;0.11;94.33;100420.78;4952804;28;20444;-77
2021/01/25 10:46:22;;;;;;;37.38;20.13;;;;;;;0.16;93.83;100424.75;4937013;29;20043;-77
2021/01/25 10:48:48;;;;;;;39.50;20.25;;;;;;;0.12;93.23;100419.88;4932234;29;20108;-77
2021/01/25 10:51:14;;;;;;;33.35;20.63;;;;;;;0.08;93.20;100428.72;4931057;29;20051;-77
2021/01/25 10:53:39;;;;;;;45.03;21.42;;;;;;;0.09;93.14;100428.59;4932567;29;20558;-75
2021/01/25 10:56:05;;;;;;;40.67;21.35;;;;;;;0.06;93.61;100420.22;4936773;29;20059;-77
2021/01/25 10:58:30;;;;;;;38.50;20.95;;;;;;;0.08;93.42;100434.69;4921994;29;20047;-78
2021/01/25 11:00:56;;;;;;;35.60;20.00;;;;;;;0.21;93.53;100431.41;4949316;28;20047;-77
2021/01/25 11:03:21;;;;;;;37.65;21.20;;;;;;;0.20;93.72;100440.91;4931303;29;20039;-77
2021/01/25 11:05:47;;;;;;;37.75;20.70;;;;;;;0.27;93.58;100446.56;4950921;29;20481;-79
2021/01/25 11:08:12;;;;;;;40.20;20.90;;;;;;;0.28;93.34;100443.03;4913057;29;20047;-76
2021/01/25 11:10:38;;;;;;;39.92;21.50;;;;;;;0.17;93.08;100447.06;4935806;29;20063;-77
2021/01/25 11:13:03;;;;;;;42.03;20.38;;;;;;;0.19;92.93;100447.00;4960567;28;20066;-78
2021/01/25 11:15:29;;;;;;;37.58;20.75;;;;;;;0.11;93.03;100447.41;4957455;28;20113;-75
2021/01/25 11:17:54;;;;;;;37.22;20.48;;;;;;;0.08;93.43;100451.94;4919943;29;20079;-75